createdAt,value
2023-03-02T00:01:16.644Z,21.6
2023-03-02T00:07:09.725Z,21.6
2023-03-02T00:13:02.549Z,21.6
2023-03-02T00:18:55.272Z,21.6
2023-03-02T00:24:47.328Z,21.6
2023-03-02T00:30:39.982Z,21.6
2023-03-02T00:36:33.041Z,21.6
2023-03-02T00:42:25.652Z,21.6
2023-03-02T00:48:18.316Z,21.6
2023-03-02T00:53:55.991Z,21.6
2023-03-02T00:59:49.207Z,21.5
2023-03-02T01:05:43.269Z,21.5
2023-03-02T01:11:36.691Z,21.5
2023-03-02T01:17:29.923Z,21.5
2023-03-02T01:23:23.156Z,21.5
2023-03-02T01:29:01.064Z,21.5
2023-03-02T01:34:38.397Z,21.5
2023-03-02T01:40:32.709Z,21.4
2023-03-02T01:46:24.494Z,21.4
2023-03-02T01:52:02.111Z,21.4
2023-03-02T01:57:40.817Z,21.4
2023-03-02T02:03:33.741Z,21.4
2023-03-02T02:09:26.968Z,21.4
2023-03-02T02:15:20.469Z,21.4
2023-03-02T02:21:13.495Z,21.4
2023-03-02T02:26:51.331Z,21.4
2023-03-02T02:32:44.448Z,21.4
2023-03-02T02:38:38.220Z,21.4
2023-03-02T02:44:30.482Z,21.4
2023-03-02T02:49:52.463Z,21.4
2023-03-02T02:55:45.084Z,21.4
2023-03-02T03:01:23.141Z,21.4
2023-03-02T03:06:59.775Z,21.3
2023-03-02T03:12:37.893Z,21.3
2023-03-02T03:18:15.152Z,21.3
2023-03-02T03:24:07.894Z,21.3
2023-03-02T03:30:00.525Z,21.3
2023-03-02T03:35:54.722Z,21.3
2023-03-02T03:41:47.475Z,21.3
2023-03-02T03:47:42.629Z,21.3
2023-03-02T03:53:36.709Z,21.3
2023-03-02T03:59:29.505Z,21.3
2023-03-02T04:04:52.256Z,21.3
2023-03-02T04:10:30.200Z,21.3
2023-03-02T04:16:06.363Z,21.3
2023-03-02T04:21:28.607Z,21.3
2023-03-02T04:27:06.241Z,21.3
2023-03-02T04:33:00.237Z,21.3
2023-03-02T04:38:51.894Z,21.3
2023-03-02T04:44:45.286Z,21.3
2023-03-02T04:50:41.414Z,21.3
2023-03-02T04:56:33.511Z,21.2
2023-03-02T05:02:28.694Z,21.2
2023-03-02T05:08:21.195Z,21.2
2023-03-02T05:14:12.933Z,21.3
2023-03-02T05:20:06.369Z,21.2
2023-03-02T05:25:58.935Z,21.2
2023-03-02T05:31:52.425Z,21.2
2023-03-02T05:37:46.129Z,21.2
2023-03-02T05:43:39.050Z,21.2
2023-03-02T05:49:32.320Z,21.2
2023-03-02T07:37:01.454Z,21.1
2023-03-02T07:42:54.498Z,21.1
2023-03-02T07:48:47.269Z,21.1
2023-03-02T08:00:17.213Z,21.1
2023-03-02T08:06:10.247Z,21.1
2023-03-02T08:12:03.717Z,21.1
2023-03-02T08:17:56.317Z,21.1
2023-03-02T08:23:48.586Z,21.1
2023-03-02T08:29:41.092Z,21.1
2023-03-02T08:35:19.250Z,21.1
2023-03-02T08:41:13.075Z,21.1
2023-03-02T08:47:07.125Z,21
2023-03-02T08:53:00.243Z,21.1
2023-03-02T08:58:52.869Z,21.1
2023-03-02T09:04:47.063Z,21.1
2023-03-02T09:10:40.332Z,21.1
2023-03-02T09:16:32.780Z,21.1
2023-03-02T09:22:25.572Z,21
2023-03-02T09:28:17.878Z,21
2023-03-02T09:34:11.390Z,21
2023-03-02T09:40:04.453Z,21
2023-03-02T09:46:08.047Z,21
2023-03-02T09:52:06.580Z,21
2023-03-02T09:58:00.399Z,21
2023-03-02T10:04:08.673Z,21
2023-03-02T10:09:46.191Z,21
2023-03-02T10:15:42.506Z,21
2023-03-02T10:21:40.127Z,21
2023-03-02T10:27:35.887Z,21
2023-03-02T10:33:13.849Z,21
2023-03-02T10:39:06.768Z,21
2023-03-02T10:44:59.710Z,21
2023-03-02T10:50:59.689Z,21
2023-03-02T10:57:02.297Z,20.9
2023-03-02T11:02:54.987Z,20.9
2023-03-02T11:08:50.076Z,21
2023-03-02T11:14:43.476Z,20.9
2023-03-02T11:20:20.922Z,20.9
2023-03-02T11:26:14.011Z,20.9
2023-03-02T11:31:53.269Z,21
2023-03-02T11:37:57.145Z,20.9
2023-03-02T11:43:54.974Z,20.9
2023-03-02T11:49:56.098Z,20.9
2023-03-02T11:55:57.109Z,20.9
2023-03-02T12:01:53.152Z,20.9
2023-03-02T12:07:16.458Z,20.9
2023-03-02T12:13:10.146Z,20.9
2023-03-02T12:19:03.927Z,20.9
2023-03-02T12:24:56.700Z,20.9
2023-03-02T12:30:49.534Z,20.9
2023-03-02T12:36:43.242Z,20.9
2023-03-02T12:42:36.687Z,20.9
2023-03-02T12:48:32.698Z,20.9
2023-03-02T12:54:27.613Z,20.9
2023-03-02T13:00:20.914Z,20.9
2023-03-02T13:06:13.896Z,20.9
2023-03-02T13:12:11.569Z,20.9
2023-03-02T13:18:03.914Z,20.9
2023-03-02T13:23:56.611Z,20.9
2023-03-02T13:29:49.872Z,20.9
2023-03-02T13:35:44.452Z,20.9
2023-03-02T13:41:36.984Z,20.9
2023-03-02T13:47:31.726Z,20.9
2023-03-02T13:53:39.877Z,20.9
2023-03-02T13:59:31.446Z,20.9
2023-03-02T14:05:26.364Z,20.9
2023-03-02T14:11:20.325Z,20.8
2023-03-02T14:16:57.899Z,20.9
2023-03-02T14:22:50.364Z,20.9
2023-03-02T14:28:47.370Z,20.9
2023-03-02T14:34:43.497Z,20.9
2023-03-02T14:40:35.841Z,20.9
2023-03-02T14:46:40.085Z,20.9
2023-03-02T14:52:32.692Z,20.8
2023-03-02T14:58:28.217Z,20.4
2023-03-02T15:04:36.354Z,20.3
2023-03-02T15:10:47.144Z,20.3
2023-03-02T15:16:23.987Z,20.3
2023-03-02T15:22:17.047Z,20.4
2023-03-02T15:28:13.067Z,20.4
2023-03-02T15:34:06.799Z,20.4
2023-03-02T15:39:59.627Z,20.4
2023-03-02T15:45:53.795Z,20.4
2023-03-02T15:51:47.337Z,20.4
2023-03-02T15:57:50.031Z,20.4
2023-03-02T16:03:29.606Z,20.4
2023-03-02T16:09:23.535Z,20.4
2023-03-02T16:15:16.619Z,20.4
2023-03-02T16:21:09.168Z,20.5
2023-03-02T16:27:03.153Z,20.5
2023-03-02T16:32:56.827Z,20.5
2023-03-02T16:38:50.030Z,20.5
2023-03-02T16:44:43.260Z,20.5
2023-03-02T16:50:21.827Z,20.5
2023-03-02T16:56:15.424Z,20.5
2023-03-02T17:02:09.160Z,20.5
2023-03-02T17:08:06.969Z,20.5
2023-03-02T17:14:00.746Z,20.6
2023-03-02T17:19:53.853Z,20.5
2023-03-02T17:25:46.554Z,20.5
2023-03-02T17:31:54.894Z,20.6
2023-03-02T17:37:47.429Z,20.6
2023-03-02T17:43:43.831Z,20.6
2023-03-02T17:49:36.619Z,20.6
2023-03-02T17:55:30.031Z,20.6
2023-03-02T18:01:30.463Z,20.6
2023-03-02T18:07:26.983Z,20.5
2023-03-02T18:13:20.232Z,20.5
2023-03-02T18:19:13.504Z,20.6
2023-03-02T18:24:51.061Z,20.5
2023-03-02T18:30:45.198Z,20.5
2023-03-02T18:36:38.470Z,20.5
2023-03-02T18:42:15.660Z,20.5
2023-03-02T18:48:09.068Z,20.5
2023-03-02T18:54:02.330Z,20.6
2023-03-02T18:59:54.692Z,20.5
2023-03-02T19:05:48.431Z,20.5
2023-03-02T19:11:43.693Z,20.5
2023-03-02T19:17:23.156Z,20.5
2023-03-02T19:23:16.033Z,20.5
2023-03-02T19:29:09.303Z,20.5
2023-03-02T19:35:02.906Z,20.5
2023-03-02T19:40:40.178Z,20.5
2023-03-02T19:46:33.851Z,20.5
2023-03-02T19:52:27.964Z,20.5
2023-03-02T19:58:21.323Z,20.4
2023-03-02T20:04:17.030Z,20.5
2023-03-02T20:09:54.738Z,20.5
2023-03-02T20:15:56.819Z,20.4
2023-03-02T20:21:52.029Z,20.4
2023-03-02T20:27:44.657Z,20.4
2023-03-02T20:33:38.055Z,20.4
2023-03-02T20:39:35.230Z,20.4
2023-03-02T20:45:28.354Z,20.4
2023-03-02T20:51:22.193Z,20.4
2023-03-02T20:57:15.716Z,20.4
2023-03-02T21:02:53.290Z,20.4
2023-03-02T21:08:48.524Z,20.4
2023-03-02T21:14:44.773Z,20.4
2023-03-02T21:20:39.216Z,20.4
2023-03-02T21:26:31.433Z,20.4
2023-03-02T21:32:24.511Z,20.4
2023-03-02T21:38:19.423Z,20.4
2023-03-02T21:44:13.452Z,20.4
2023-03-02T21:50:06.857Z,20.4
2023-03-02T21:55:46.562Z,20.4
2023-03-02T22:01:40.490Z,20.4
2023-03-02T22:07:32.989Z,20.4
2023-03-02T22:13:26.171Z,20.4
2023-03-02T22:19:20.458Z,20.4
2023-03-02T22:25:14.173Z,20.4
2023-03-02T22:31:06.015Z,20.4
2023-03-02T22:36:59.428Z,20.4
2023-03-02T22:42:53.158Z,20.4
2023-03-02T22:48:46.790Z,20.4
2023-03-02T22:54:40.381Z,20.4
2023-03-02T23:00:34.419Z,20.4
2023-03-02T23:06:27.785Z,20.4
2023-03-02T23:12:20.934Z,20.4
2023-03-02T23:18:15.681Z,20.4
2023-03-02T23:24:07.987Z,20.4
2023-03-02T23:30:00.771Z,20.4
2023-03-02T23:35:53.977Z,20.4
2023-03-02T23:41:45.949Z,20.4
2023-03-02T23:47:38.366Z,20.4
2023-03-02T23:53:31.252Z,20.4
2023-03-02T23:59:25.467Z,20.4
